createdAt,value
2019-05-05T00:25:07.456Z,12.40
2019-05-05T00:30:11.383Z,14.20
2019-05-05T00:32:44.256Z,14.55
2019-05-05T00:35:15.510Z,14.78
2019-05-05T00:37:46.672Z,14.50
2019-05-05T00:40:17.771Z,14.53
2019-05-05T00:42:49.069Z,14.20
2019-05-05T00:45:20.156Z,13.80
2019-05-05T00:47:54.415Z,14.73
2019-05-05T00:50:25.721Z,14.78
2019-05-05T00:52:56.910Z,16.27
2019-05-05T00:55:28.047Z,15.35
2019-05-05T00:57:59.190Z,16.20
2019-05-05T01:00:35.344Z,16.30
2019-05-05T01:03:06.812Z,16.48
2019-05-05T01:46:31.226Z,15.30
2019-05-05T01:49:02.369Z,20.12
2019-05-05T01:51:35.355Z,19.57
2019-05-05T01:54:06.446Z,20.97
2019-05-05T01:56:38.530Z,19.52
2019-05-05T01:59:10.390Z,20.60
2019-05-05T02:01:41.492Z,18.32
2019-05-05T02:04:14.486Z,17.95
2019-05-05T02:06:45.573Z,18.92
2019-05-05T02:09:16.792Z,18.98
2019-05-05T02:11:47.931Z,18.95
2019-05-05T02:14:20.033Z,18.42
2019-05-05T02:16:51.199Z,17.00
2019-05-05T02:19:22.307Z,15.88
2019-05-05T02:21:55.036Z,15.35
2019-05-05T02:24:26.175Z,15.32
2019-05-05T02:26:57.329Z,14.75
2019-05-05T02:29:30.014Z,13.68
2019-05-05T02:32:18.221Z,13.18
2019-05-05T02:34:50.903Z,12.03
2019-05-05T02:37:25.412Z,12.10
2019-05-05T02:40:02.335Z,11.43
2019-05-05T02:42:28.004Z,10.82
2019-05-05T02:45:01.611Z,10.68
2019-05-05T02:47:54.741Z,11.75
2019-05-05T02:50:27.054Z,11.55
2019-05-05T02:53:00.610Z,12.00
2019-05-05T02:55:32.786Z,12.25
2019-05-05T02:58:04.899Z,12.63
2019-05-05T03:00:41.378Z,12.30
2019-05-05T03:03:13.491Z,12.53
2019-05-05T03:05:44.702Z,13.13
2019-05-05T03:08:15.962Z,11.48
2019-05-05T03:10:47.067Z,12.45
2019-05-05T03:13:18.426Z,12.03
2019-05-05T03:16:13.726Z,12.13
2019-05-05T03:18:44.891Z,9.55
2019-05-05T03:21:16.317Z,11.15
2019-05-05T03:23:47.662Z,10.55
2019-05-05T03:26:19.420Z,11.12
2019-05-05T03:28:55.069Z,10.38
2019-05-05T03:31:26.693Z,10.35
2019-05-05T03:33:59.325Z,9.25
2019-05-05T03:36:30.957Z,9.95
2019-05-05T03:39:05.141Z,9.08
2019-05-05T03:41:44.041Z,9.35
2019-05-05T03:44:19.784Z,8.63
2019-05-05T03:46:51.325Z,9.73
2019-05-05T03:49:24.268Z,9.40
2019-05-05T03:51:56.318Z,9.53
2019-05-05T03:54:27.618Z,9.65
2019-05-05T03:57:10.855Z,9.98
2019-05-05T03:59:44.174Z,10.55
2019-05-05T04:02:34.714Z,10.03
2019-05-05T04:05:07.516Z,9.18
2019-05-05T04:07:38.670Z,11.43
2019-05-05T04:10:09.794Z,10.30
2019-05-05T04:12:43.382Z,11.18
2019-05-05T04:15:14.471Z,10.78
2019-05-05T04:17:53.698Z,10.40
2019-05-05T04:20:26.715Z,10.50
2019-05-05T04:22:58.301Z,10.68
2019-05-05T04:25:29.600Z,11.73
2019-05-05T04:28:00.758Z,10.55
2019-05-05T04:30:33.810Z,10.82
2019-05-05T04:33:04.964Z,11.93
2019-05-05T04:35:37.814Z,12.18
2019-05-05T04:38:08.913Z,13.18
2019-05-05T04:40:40.165Z,14.20
2019-05-05T04:43:11.361Z,14.53
2019-05-05T04:45:43.596Z,15.48
2019-05-05T04:48:16.614Z,15.80
2019-05-05T04:50:58.343Z,13.60
2019-05-05T04:53:31.057Z,12.13
2019-05-05T04:56:04.063Z,11.93
2019-05-05T05:01:05.525Z,10.32
2019-05-05T05:03:38.358Z,9.75
2019-05-05T05:06:11.042Z,9.70
2019-05-05T05:08:44.206Z,9.90
2019-05-05T05:11:15.006Z,9.18
2019-05-05T05:13:46.182Z,7.85
2019-05-05T05:16:17.327Z,8.45
2019-05-05T05:18:48.614Z,8.98
2019-05-05T05:23:53.594Z,8.53
2019-05-05T05:26:25.605Z,8.35
2019-05-05T05:28:56.755Z,8.58
2019-05-05T05:31:28.185Z,9.05
2019-05-05T05:34:09.125Z,8.05
2019-05-05T05:37:14.825Z,7.87
2019-05-05T05:39:47.585Z,8.45
2019-05-05T05:42:24.166Z,7.12
2019-05-05T05:46:46.724Z,6.55
2019-05-05T05:49:05.775Z,5.90
2019-05-05T05:51:37.534Z,6.00
2019-05-05T05:54:08.760Z,5.80
2019-05-05T05:56:40.011Z,4.22
2019-05-05T05:59:11.187Z,4.12
2019-05-05T06:01:43.729Z,4.40
2019-05-05T06:04:14.995Z,3.77
2019-05-05T06:06:46.001Z,4.00
2019-05-05T06:09:17.139Z,3.25
2019-05-05T06:11:48.733Z,3.72
2019-05-05T06:14:19.927Z,3.80
2019-05-05T06:16:51.054Z,3.17
2019-05-05T06:19:22.291Z,2.95
2019-05-05T06:21:54.365Z,3.27
2019-05-05T06:24:25.679Z,3.70
2019-05-05T06:26:58.592Z,2.45
2019-05-05T06:29:29.734Z,2.98
2019-05-05T06:32:01.043Z,3.12
2019-05-05T06:34:33.834Z,2.95
2019-05-05T06:37:05.322Z,2.92
2019-05-05T06:39:36.562Z,2.60
2019-05-05T06:42:27.467Z,3.05
2019-05-05T06:45:04.161Z,3.22
2019-05-05T06:47:37.161Z,2.62
2019-05-05T06:50:08.294Z,3.08
2019-05-05T06:52:44.292Z,2.62
2019-05-05T06:55:13.971Z,3.05
2019-05-05T07:00:17.076Z,2.80
2019-05-05T07:02:48.215Z,3.05
2019-05-05T07:05:19.382Z,2.83
2019-05-05T07:07:50.782Z,3.02
2019-05-05T07:10:21.879Z,2.75
2019-05-05T07:12:54.378Z,2.80
2019-05-05T07:15:25.711Z,2.90
2019-05-05T07:17:56.966Z,2.98
2019-05-05T07:20:28.091Z,2.33
2019-05-05T07:23:02.409Z,2.62
2019-05-05T07:28:04.338Z,2.55
2019-05-05T07:30:35.692Z,3.17
2019-05-05T07:33:06.886Z,2.60
2019-05-05T07:35:56.872Z,2.55
2019-05-05T07:38:24.461Z,3.12
2019-05-05T07:40:55.762Z,2.50
2019-05-05T07:43:26.964Z,2.95
2019-05-05T07:45:58.408Z,2.77
2019-05-05T07:48:29.741Z,2.45
2019-05-05T07:56:07.693Z,2.25
2019-05-05T08:11:14.932Z,2.15
2019-05-05T08:21:40.774Z,2.02
2019-05-05T08:24:16.268Z,2.75
2019-05-05T08:26:49.433Z,2.47
2019-05-05T08:29:34.710Z,2.55
2019-05-05T08:32:16.547Z,2.45
2019-05-05T08:34:56.872Z,2.50
2019-05-05T08:39:50.872Z,2.15
2019-05-05T08:42:22.037Z,2.17
2019-05-05T08:44:53.828Z,2.20
2019-05-05T08:47:28.155Z,3.08
2019-05-05T08:49:59.672Z,2.33
2019-05-05T09:02:37.845Z,1.42
2019-05-05T09:25:30.047Z,2.22
2019-05-05T09:28:05.546Z,1.80
2019-05-05T09:30:39.849Z,1.82
2019-05-05T09:48:17.439Z,1.80
2019-05-05T09:50:50.068Z,2.08
2019-05-05T11:16:20.323Z,2.10
2019-05-05T11:23:53.899Z,2.12
2019-05-05T11:26:25.070Z,1.92
2019-05-05T11:28:56.339Z,2.10
2019-05-05T11:31:27.436Z,2.17
2019-05-05T11:34:02.938Z,2.10
2019-05-05T11:36:44.577Z,2.10
2019-05-05T11:39:15.764Z,2.20
2019-05-05T11:41:46.894Z,2.10
2019-05-05T11:44:18.396Z,2.60
2019-05-05T11:49:20.479Z,2.58
2019-05-05T12:06:57.190Z,2.00
2019-05-05T12:09:29.878Z,2.02
2019-05-05T12:14:32.466Z,1.60
2019-05-05T12:17:19.423Z,1.90
2019-05-05T12:19:50.659Z,1.62
2019-05-05T12:22:23.567Z,1.95
2019-05-05T12:27:27.600Z,2.70
2019-05-05T12:34:59.447Z,3.05
2019-05-05T12:37:30.579Z,2.70
2019-05-05T12:40:05.198Z,2.77
2019-05-05T12:42:40.179Z,3.35
2019-05-05T12:45:13.768Z,2.77
2019-05-05T12:47:46.593Z,2.72
2019-05-05T12:50:18.403Z,1.90
2019-05-05T12:52:49.570Z,2.33
2019-05-05T12:55:20.737Z,2.60
2019-05-05T12:57:53.918Z,2.08
2019-05-05T13:00:25.375Z,1.90
2019-05-05T13:02:56.551Z,2.10
2019-05-05T13:05:27.714Z,1.40
2019-05-05T13:07:58.890Z,1.70
2019-05-05T13:10:30.049Z,1.60
2019-05-05T13:13:01.171Z,1.45
2019-05-05T13:15:33.923Z,1.77
2019-05-05T13:18:05.303Z,1.45
2019-05-05T13:20:38.002Z,1.60
2019-05-05T13:23:19.803Z,2.00
2019-05-05T13:26:08.619Z,1.62
2019-05-05T13:28:39.870Z,2.58
2019-05-05T13:31:13.876Z,3.25
2019-05-05T13:33:44.238Z,2.67
2019-05-05T13:36:16.656Z,9.60
2019-05-05T13:38:47.833Z,18.30
2019-05-05T13:41:18.961Z,6.97
2019-05-05T13:43:50.154Z,6.15
2019-05-05T13:46:28.901Z,3.52
2019-05-05T13:49:18.967Z,6.65
2019-05-05T13:51:53.910Z,1.87
2019-05-05T13:54:24.502Z,1.67
2019-05-05T13:56:55.677Z,2.08
2019-05-05T13:59:26.758Z,2.42
2019-05-05T14:01:57.909Z,1.77
2019-05-05T14:04:30.468Z,1.57
2019-05-05T14:07:03.837Z,4.65
2019-05-05T14:09:34.431Z,2.50
2019-05-05T14:12:05.596Z,1.90
2019-05-05T14:14:36.767Z,1.37
2019-05-05T14:17:07.968Z,1.52
2019-05-05T14:19:39.115Z,1.10
2019-05-05T14:22:10.358Z,1.10
2019-05-05T14:24:44.453Z,1.40
2019-05-05T14:27:15.957Z,1.25
2019-05-05T14:29:59.323Z,1.70
2019-05-05T14:32:32.075Z,1.30
2019-05-05T14:35:04.980Z,1.27
2019-05-05T14:37:40.432Z,1.12
2019-05-05T14:40:12.862Z,1.02
2019-05-05T14:42:44.893Z,1.05
2019-05-05T14:45:16.484Z,1.30
2019-05-05T14:47:49.982Z,2.15
2019-05-05T14:50:21.443Z,1.37
2019-05-05T14:52:53.483Z,1.50
2019-05-05T14:55:25.578Z,1.57
2019-05-05T14:57:58.142Z,1.80
2019-05-05T15:00:30.411Z,2.15
2019-05-05T15:03:03.510Z,1.60
2019-05-05T15:05:35.926Z,1.40
2019-05-05T15:08:08.644Z,1.40
2019-05-05T15:10:50.519Z,1.12
2019-05-05T15:13:24.264Z,1.30
2019-05-05T15:15:55.482Z,1.10
2019-05-05T15:18:26.661Z,1.30
2019-05-05T15:20:58.092Z,1.10
2019-05-05T15:23:29.261Z,1.00
2019-05-05T15:26:01.239Z,1.00
2019-05-05T15:28:33.682Z,1.10
2019-05-05T15:31:05.010Z,1.62
2019-05-05T15:33:37.807Z,1.20
2019-05-05T15:36:09.047Z,1.02
2019-05-05T15:38:40.221Z,0.90
2019-05-05T15:41:11.359Z,1.00
2019-05-05T15:43:44.111Z,1.30
2019-05-05T15:46:15.352Z,1.02
2019-05-05T15:48:46.779Z,1.00
2019-05-05T15:51:18.665Z,1.20
2019-05-05T15:53:58.594Z,1.00
2019-05-05T15:56:29.743Z,1.20
2019-05-05T15:59:01.489Z,0.80
2019-05-05T16:01:34.451Z,1.12
2019-05-05T16:04:05.599Z,1.05
2019-05-05T16:06:36.749Z,1.40
2019-05-05T16:09:08.367Z,1.30
2019-05-05T16:11:40.734Z,1.20
2019-05-05T16:14:11.915Z,1.42
2019-05-05T16:16:55.617Z,1.30
2019-05-05T16:19:46.187Z,1.50
2019-05-05T16:22:19.118Z,1.52
2019-05-05T16:25:08.259Z,1.60
2019-05-05T16:27:40.922Z,1.70
2019-05-05T16:30:14.585Z,1.80
2019-05-05T16:32:46.765Z,1.80
2019-05-05T16:35:17.956Z,1.62
2019-05-05T16:37:50.509Z,1.57
2019-05-05T16:40:25.639Z,1.20
2019-05-05T16:42:55.942Z,1.50
2019-05-05T16:45:27.167Z,1.80
2019-05-05T16:47:58.294Z,2.60
2019-05-05T16:50:29.387Z,1.60
2019-05-05T16:53:03.967Z,2.00
2019-05-05T16:55:39.682Z,1.67
2019-05-05T16:58:13.927Z,1.65
2019-05-05T17:00:45.030Z,1.98
2019-05-05T17:03:16.196Z,1.80
2019-05-05T17:05:47.352Z,2.72
2019-05-05T17:08:19.515Z,2.05
2019-05-05T17:10:51.916Z,1.80
2019-05-05T17:13:30.561Z,1.95
2019-05-05T17:16:07.536Z,1.55
2019-05-05T17:18:40.669Z,2.12
2019-05-05T17:21:16.925Z,1.70
2019-05-05T17:23:48.141Z,1.92
2019-05-05T17:26:20.316Z,1.80
2019-05-05T17:28:53.982Z,1.60
2019-05-05T17:31:24.704Z,2.15
2019-05-05T17:33:55.999Z,1.67
2019-05-05T17:36:27.113Z,1.90
2019-05-05T17:38:58.287Z,1.95
2019-05-05T17:41:30.946Z,1.95
2019-05-05T17:44:03.687Z,1.52
2019-05-05T17:46:44.402Z,1.50
2019-05-05T17:49:28.624Z,1.65
2019-05-05T17:52:07.089Z,1.42
2019-05-05T17:54:39.784Z,1.75
2019-05-05T17:57:10.797Z,1.77
2019-05-05T17:59:43.968Z,1.90
2019-05-05T18:02:14.905Z,1.87
2019-05-05T18:04:46.381Z,1.75
2019-05-05T18:07:23.817Z,2.00
2019-05-05T18:09:57.874Z,2.12
2019-05-05T18:12:36.712Z,1.90
2019-05-05T18:15:09.482Z,2.10
2019-05-05T18:17:43.366Z,2.08
2019-05-05T18:50:25.149Z,1.98
2019-05-05T18:52:56.283Z,2.20
2019-05-05T18:55:27.437Z,1.85
2019-05-05T18:57:58.601Z,1.98
2019-05-05T19:00:31.238Z,1.60
2019-05-05T19:03:17.509Z,1.77
2019-05-05T19:05:43.914Z,1.80
2019-05-05T19:08:25.642Z,1.85
2019-05-05T19:10:56.780Z,2.43
2019-05-05T19:13:28.025Z,2.10
2019-05-05T19:15:59.221Z,2.10
2019-05-05T19:18:30.415Z,2.00
2019-05-05T19:21:19.349Z,2.60
2019-05-05T19:23:50.492Z,2.10
2019-05-05T19:26:21.603Z,2.20
2019-05-05T19:28:54.790Z,2.00
2019-05-05T19:31:25.521Z,2.00
2019-05-05T19:33:56.657Z,1.98
2019-05-05T19:36:27.769Z,2.17
2019-05-05T19:39:00.021Z,2.58
2019-05-05T19:41:32.275Z,1.93
2019-05-05T19:44:04.686Z,1.95
2019-05-05T19:46:37.875Z,2.33
2019-05-05T19:49:19.407Z,2.10
2019-05-05T19:51:50.501Z,1.85
2019-05-05T19:54:21.655Z,2.30
2019-05-05T19:56:54.253Z,2.20
2019-05-05T19:59:25.631Z,1.98
2019-05-05T20:01:56.783Z,2.10
2019-05-05T20:04:28.062Z,2.00
2019-05-05T20:06:59.323Z,2.25
2019-05-05T20:09:30.455Z,2.08
2019-05-05T20:12:03.873Z,2.00
2019-05-05T20:14:34.443Z,2.37
2019-05-05T20:17:14.711Z,2.30
2019-05-05T20:19:46.200Z,1.90
2019-05-05T20:22:17.284Z,2.10
2019-05-05T20:24:48.386Z,2.08
2019-05-05T20:27:19.664Z,1.90
2019-05-05T20:29:50.744Z,2.08
2019-05-05T20:32:24.441Z,2.10
2019-05-05T20:35:06.878Z,2.62
2019-05-05T20:37:42.314Z,2.10
2019-05-05T20:40:15.220Z,2.25
2019-05-05T20:42:46.339Z,2.40
2019-05-05T20:45:20.144Z,2.65
2019-05-05T20:47:53.507Z,2.30
2019-05-05T20:50:24.692Z,2.20
2019-05-05T20:52:56.079Z,2.43
2019-05-05T20:55:27.209Z,2.60
2019-05-05T20:57:58.353Z,2.52
2019-05-05T21:00:29.436Z,2.70
2019-05-05T21:03:00.659Z,2.40
2019-05-05T21:05:31.679Z,2.80
2019-05-05T21:08:04.853Z,3.03
2019-05-05T21:10:35.528Z,2.60
2019-05-05T21:13:06.908Z,2.50
2019-05-05T21:15:38.078Z,2.90
2019-05-05T21:18:09.205Z,3.30
2019-05-05T21:20:40.255Z,3.50
2019-05-05T21:23:22.041Z,3.60
2019-05-05T21:25:54.719Z,3.27
2019-05-05T21:28:25.795Z,2.50
2019-05-05T21:30:56.944Z,2.95
2019-05-05T21:33:28.045Z,2.80
2019-05-05T21:35:59.198Z,2.70
2019-05-05T21:38:30.417Z,3.05
2019-05-05T21:41:04.055Z,2.90
2019-05-05T21:43:34.435Z,2.50
2019-05-05T21:46:05.581Z,2.87
2019-05-05T21:48:36.658Z,2.80
2019-05-05T21:51:25.480Z,3.00
2019-05-05T21:53:58.176Z,3.15
2019-05-05T21:56:39.985Z,2.60
2019-05-05T21:59:11.095Z,2.92
2019-05-05T22:01:48.453Z,2.90
2019-05-05T22:04:15.132Z,2.65
2019-05-05T22:06:46.271Z,2.80
2019-05-05T22:09:17.338Z,2.50
2019-05-05T22:11:48.480Z,2.90
2019-05-05T22:14:19.671Z,2.55
2019-05-05T22:16:50.763Z,3.05
2019-05-05T22:19:24.003Z,2.62
2019-05-05T22:22:03.893Z,2.92
2019-05-05T22:24:35.765Z,2.65
2019-05-05T22:27:07.245Z,2.45
2019-05-05T22:29:38.312Z,2.60
2019-05-05T22:32:09.425Z,2.75
2019-05-05T22:34:40.605Z,2.85
2019-05-05T22:37:11.707Z,3.00
2019-05-05T22:39:44.542Z,2.50
2019-05-05T22:42:15.811Z,2.62
2019-05-05T22:44:46.948Z,2.58
2019-05-05T22:47:18.026Z,2.83
2019-05-05T22:49:49.176Z,3.10
2019-05-05T22:52:20.255Z,2.70
2019-05-05T22:54:51.421Z,3.02
2019-05-05T22:57:24.609Z,2.73
2019-05-05T22:59:55.286Z,2.60
2019-05-05T23:02:28.031Z,2.95
2019-05-05T23:05:04.143Z,2.80
2019-05-05T23:07:35.481Z,2.80
2019-05-05T23:10:07.523Z,2.95
2019-05-05T23:12:38.632Z,2.77
2019-05-05T23:15:10.902Z,2.75
2019-05-05T23:18:00.238Z,3.08
2019-05-05T23:20:44.769Z,2.95
2019-05-05T23:23:23.986Z,3.00
2019-05-05T23:25:56.830Z,3.15
2019-05-05T23:28:27.923Z,2.70
2019-05-05T23:30:59.135Z,3.17
2019-05-05T23:33:30.224Z,2.75
2019-05-05T23:36:01.419Z,3.60
2019-05-05T23:38:34.617Z,3.45
2019-05-05T23:41:05.301Z,3.20
2019-05-05T23:43:36.351Z,3.10
2019-05-05T23:46:07.443Z,2.85
2019-05-05T23:48:38.568Z,3.10
2019-05-05T23:51:09.663Z,3.37
2019-05-05T23:53:40.799Z,3.20
2019-05-05T23:56:13.637Z,3.25
2019-05-05T23:58:44.840Z,3.12
